Time;durP1;ratioP1;P1;durP2;ratioP2;P2;SDS_P1;SDS_P2;PMS_P1;PMS_P2;Temp;Humidity;BMP_temperature;BMP_pressure;BME280_temperature;BME280_humidity;BME280_pressure;Samples;Min_cycle;Max_cycle;Signal;HPM_P1;HPM_P2
2023/03/27 00:00:55;;;;;;;11.27;2.70;;;;;;;;;;5082472;28;20278;-71
2023/03/27 00:03:22;;;;;;;15.43;2.77;;;;;;;;;;5083618;28;20773;-71
2023/03/27 00:05:49;;;;;;;8.77;2.40;;;;;;;;;;5084401;28;20674;-71
2023/03/27 00:08:17;;;;;;;10.97;2.53;;;;;;;;;;5081126;28;20203;-72
2023/03/27 00:10:43;;;;;;;11.83;3.00;;;;;;;;;;5084332;28;20241;-72
2023/03/27 00:13:10;;;;;;;13.53;2.83;;;;;;;;;;5084454;28;20224;-71
2023/03/27 00:15:36;;;;;;;11.83;2.83;;;;;;;;;;5085174;28;20547;-72
2023/03/27 00:18:03;;;;;;;5.80;2.57;;;;;;;;;;5085416;28;20666;-71
2023/03/27 00:20:30;;;;;;;9.40;2.43;;;;;;;;;;5086156;28;20194;-71
2023/03/27 00:22:57;;;;;;;10.83;2.67;;;;;;;;;;5083815;28;20654;-72
2023/03/27 00:25:26;;;;;;;10.83;2.77;;;;;;;;;;5085716;28;20191;-71
2023/03/27 00:27:55;;;;;;;11.23;2.87;;;;;;;;;;5085342;28;20199;-71
2023/03/27 00:30:21;;;;;;;7.37;2.13;;;;;;;;;;5085043;28;20218;-71
2023/03/27 00:32:48;;;;;;;5.57;1.90;;;;;;;;;;5084440;28;20794;-72
2023/03/27 00:35:15;;;;;;;8.20;1.97;;;;;;;;;;5071331;28;20210;-72
2023/03/27 00:37:41;;;;;;;12.67;2.70;;;;;;;;;;5083716;28;20205;-73
2023/03/27 00:40:12;;;;;;;6.93;2.10;;;;;;;;;;5083797;28;20251;-71
2023/03/27 00:42:39;;;;;;;8.10;2.10;;;;;;;;;;5085536;28;20718;-71
2023/03/27 00:45:06;;;;;;;6.93;2.33;;;;;;;;;;5068758;28;20197;-71
2023/03/27 00:47:34;;;;;;;8.00;2.10;;;;;;;;;;5066451;28;20213;-71
2023/03/27 00:50:06;;;;;;;8.67;2.40;;;;;;;;;;5066790;28;20346;-71
2023/03/27 00:52:33;;;;;;;7.93;1.93;;;;;;;;;;5088503;28;20245;-71
2023/03/27 00:55:03;;;;;;;4.10;1.60;;;;;;;;;;5080497;28;20215;-70
2023/03/27 00:57:29;;;;;;;7.80;2.07;;;;;;;;;;5087634;28;20205;-70
2023/03/27 00:59:58;;;;;;;6.73;1.87;;;;;;;;;;5069694;28;20433;-71
2023/03/27 01:02:25;;;;;;;7.10;1.80;;;;;;;;;;5070569;23;20244;-70
2023/03/27 01:04:52;;;;;;;5.37;1.93;;;;;;;;;;5011571;28;20258;-70
2023/03/27 01:07:19;;;;;;;6.07;2.10;;;;;;;;;;5028188;28;20205;-71
2023/03/27 01:09:46;;;;;;;7.13;2.00;;;;;;;;;;5029506;28;20702;-68
2023/03/27 01:12:18;;;;;;;6.60;1.90;;;;;;;;;;5035118;28;20215;-69
2023/03/27 01:14:48;;;;;;;4.73;1.57;;;;;;;;;;5030657;28;20226;-69
2023/03/27 01:17:27;;;;;;;5.30;2.47;;;;;;;;;;5029508;28;20191;-71
2023/03/27 01:20:08;;;;;;;8.37;1.70;;;;;;;;;;5051218;28;20309;-69
2023/03/27 01:22:45;;;;;;;9.17;1.60;;;;;;;;;;5029987;28;20249;-68
2023/03/27 01:25:45;;;;;;;4.50;1.57;;;;;;;;;;5026055;28;20204;-69
2023/03/27 01:28:27;;;;;;;9.33;1.40;;;;;;;;;;4951340;28;20354;-69
2023/03/27 01:30:56;;;;;;;3.60;1.70;;;;;;;;;;4948483;28;20578;-70
2023/03/27 01:33:32;;;;;;;1.47;1.10;;;;;;;;;;5008337;28;20326;-70
2023/03/27 01:36:03;;;;;;;3.90;1.50;;;;;;;;;;5045079;28;20254;-70
2023/03/27 01:38:45;;;;;;;3.67;1.87;;;;;;;;;;5031821;28;20207;-69
2023/03/27 01:41:15;;;;;;;5.17;1.33;;;;;;;;;;5031092;28;20199;-69
2023/03/27 01:43:46;;;;;;;3.17;2.00;;;;;;;;;;5047260;28;20211;-69
2023/03/27 01:46:16;;;;;;;2.57;1.70;;;;;;;;;;5027877;28;20194;-69
2023/03/27 01:48:44;;;;;;;6.90;2.20;;;;;;;;;;5027740;28;20210;-68
2023/03/27 01:51:14;;;;;;;3.37;1.73;;;;;;;;;;5051554;28;20289;-70
2023/03/27 01:53:42;;;;;;;6.70;2.63;;;;;;;;;;5042857;28;20215;-69
2023/03/27 01:56:12;;;;;;;3.80;2.10;;;;;;;;;;5044074;28;20225;-68
2023/03/27 01:58:45;;;;;;;3.90;2.33;;;;;;;;;;5043884;28;20623;-68
2023/03/27 02:01:13;;;;;;;3.67;1.83;;;;;;;;;;5051165;28;20715;-69
2023/03/27 02:03:42;;;;;;;4.07;1.80;;;;;;;;;;5030049;28;20238;-69
2023/03/27 02:06:10;;;;;;;7.70;2.10;;;;;;;;;;5047481;28;20222;-69
2023/03/27 02:08:38;;;;;;;6.93;2.13;;;;;;;;;;5044170;28;20199;-70
2023/03/27 02:11:25;;;;;;;3.30;1.90;;;;;;;;;;5030252;28;20249;-69
2023/03/27 02:13:57;;;;;;;6.23;1.87;;;;;;;;;;5046185;28;20223;-69
2023/03/27 02:16:27;;;;;;;4.23;2.07;;;;;;;;;;5039243;28;20226;-68
2023/03/27 02:18:55;;;;;;;2.30;1.43;;;;;;;;;;5028142;28;20215;-69
2023/03/27 02:21:23;;;;;;;3.50;1.43;;;;;;;;;;5039390;28;20192;-69
2023/03/27 02:23:49;;;;;;;1.83;1.20;;;;;;;;;;5029039;28;20226;-70
2023/03/27 02:26:16;;;;;;;1.40;1.20;;;;;;;;;;5045178;28;20198;-69
2023/03/27 02:28:48;;;;;;;2.40;1.60;;;;;;;;;;5027025;28;20794;-69
2023/03/27 02:31:24;;;;;;;2.93;1.43;;;;;;;;;;5030859;28;20192;-69
2023/03/27 02:33:57;;;;;;;3.20;1.20;;;;;;;;;;5046264;28;20226;-69
2023/03/27 02:36:32;;;;;;;1.27;0.97;;;;;;;;;;5043027;28;20211;-68
2023/03/27 02:39:01;;;;;;;3.40;1.30;;;;;;;;;;5036403;28;20232;-70
2023/03/27 02:41:30;;;;;;;0.80;0.80;;;;;;;;;;5028292;28;20544;-70
2023/03/27 02:44:30;;;;;;;4.27;1.10;;;;;;;;;;5045529;28;20211;-69
2023/03/27 02:47:04;;;;;;;1.67;0.97;;;;;;;;;;5026470;28;20477;-69
2023/03/27 02:49:33;;;;;;;1.20;1.00;;;;;;;;;;5046654;28;20244;-69
2023/03/27 02:52:02;;;;;;;1.63;0.97;;;;;;;;;;5025262;28;20215;-69
2023/03/27 02:54:31;;;;;;;2.30;1.00;;;;;;;;;;5025133;28;20199;-69
2023/03/27 02:57:00;;;;;;;1.43;1.00;;;;;;;;;;5048754;28;20223;-70
2023/03/27 02:59:41;;;;;;;4.27;1.00;;;;;;;;;;5023521;28;20203;-69
2023/03/27 03:02:11;;;;;;;2.50;1.40;;;;;;;;;;5055742;28;20219;-69
2023/03/27 03:04:55;;;;;;;2.23;0.80;;;;;;;;;;5045027;28;20745;-69
2023/03/27 03:07:27;;;;;;;4.60;1.27;;;;;;;;;;5051906;28;20223;-70
2023/03/27 03:09:54;;;;;;;1.60;1.13;;;;;;;;;;5046198;28;20200;-68
2023/03/27 03:12:20;;;;;;;1.50;0.90;;;;;;;;;;5040014;28;20223;-69
2023/03/27 03:14:47;;;;;;;2.93;0.80;;;;;;;;;;5027002;28;20207;-69
2023/03/27 03:17:15;;;;;;;2.10;0.73;;;;;;;;;;5047763;28;20196;-70
2023/03/27 03:19:42;;;;;;;4.10;1.23;;;;;;;;;;5028237;28;20538;-69
2023/03/27 03:22:08;;;;;;;1.13;1.03;;;;;;;;;;5044322;28;20251;-68
2023/03/27 03:24:40;;;;;;;2.00;1.00;;;;;;;;;;5044164;28;20187;-70
2023/03/27 03:27:08;;;;;;;3.97;0.93;;;;;;;;;;5055301;28;20314;-68
2023/03/27 03:29:43;;;;;;;2.37;1.10;;;;;;;;;;5028361;28;20218;-69
2023/03/27 03:32:17;;;;;;;1.67;1.27;;;;;;;;;;5026241;28;20293;-69
2023/03/27 03:34:45;;;;;;;1.10;0.90;;;;;;;;;;5039152;28;20245;-69
2023/03/27 03:37:13;;;;;;;1.20;1.00;;;;;;;;;;5037324;28;20211;-68
2023/03/27 03:39:40;;;;;;;4.13;1.03;;;;;;;;;;5040096;28;20723;-69
2023/03/27 03:42:07;;;;;;;1.27;0.90;;;;;;;;;;5051696;28;20218;-70
2023/03/27 03:44:35;;;;;;;1.73;0.90;;;;;;;;;;5036459;28;20213;-69
2023/03/27 03:47:11;;;;;;;4.87;1.03;;;;;;;;;;5031817;28;20382;-68
2023/03/27 03:49:39;;;;;;;1.40;1.00;;;;;;;;;;5045499;28;20215;-70
2023/03/27 03:52:06;;;;;;;1.33;0.97;;;;;;;;;;5025595;28;20272;-69
2023/03/27 03:54:32;;;;;;;3.53;1.00;;;;;;;;;;5037404;28;20549;-68
2023/03/27 03:56:59;;;;;;;2.20;0.70;;;;;;;;;;5043022;28;20604;-71
2023/03/27 03:59:25;;;;;;;1.87;0.70;;;;;;;;;;5031354;28;20560;-69
2023/03/27 04:02:11;;;;;;;1.60;0.60;;;;;;;;;;5048458;28;20242;-69
2023/03/27 04:04:37;;;;;;;4.73;0.90;;;;;;;;;;5042220;28;20299;-69
2023/03/27 04:07:09;;;;;;;1.43;0.70;;;;;;;;;;5042656;28;20644;-68
2023/03/27 04:09:42;;;;;;;2.63;0.87;;;;;;;;;;5026363;28;20616;-68
2023/03/27 04:12:14;;;;;;;1.27;0.80;;;;;;;;;;5041063;28;20230;-69
2023/03/27 04:15:10;;;;;;;1.37;0.90;;;;;;;;;;5041311;28;20286;-68
2023/03/27 04:18:06;;;;;;;6.03;0.93;;;;;;;;;;5031172;28;20298;-69
2023/03/27 04:20:33;;;;;;;0.80;0.80;;;;;;;;;;5044751;28;20195;-68
2023/03/27 04:23:03;;;;;;;0.83;0.60;;;;;;;;;;5046623;28;20309;-69
2023/03/27 04:25:34;;;;;;;1.07;0.80;;;;;;;;;;5027374;28;20242;-69
2023/03/27 04:28:01;;;;;;;1.93;0.90;;;;;;;;;;5028907;28;20226;-68
2023/03/27 04:30:33;;;;;;;2.53;0.80;;;;;;;;;;5027458;28;20310;-69
2023/03/27 04:33:18;;;;;;;2.70;0.73;;;;;;;;;;5043715;28;20308;-68
2023/03/27 04:36:00;;;;;;;0.90;0.77;;;;;;;;;;5026936;28;20218;-69
2023/03/27 04:38:33;;;;;;;1.40;0.87;;;;;;;;;;5047871;28;20192;-68
2023/03/27 04:41:00;;;;;;;0.80;0.73;;;;;;;;;;5027707;28;20287;-68
2023/03/27 04:43:28;;;;;;;0.70;0.70;;;;;;;;;;5040061;28;20543;-69
2023/03/27 04:45:55;;;;;;;1.73;0.80;;;;;;;;;;5026237;28;20676;-68
2023/03/27 04:48:22;;;;;;;1.53;0.83;;;;;;;;;;5027713;28;20195;-68
2023/03/27 04:50:52;;;;;;;1.50;0.70;;;;;;;;;;5025342;28;20192;-68
2023/03/27 04:53:35;;;;;;;1.83;1.00;;;;;;;;;;5026066;28;20312;-68
2023/03/27 04:56:01;;;;;;;0.50;0.50;;;;;;;;;;5041971;28;20204;-68
2023/03/27 04:58:32;;;;;;;0.70;0.70;;;;;;;;;;5028708;28;20205;-69
2023/03/27 05:01:01;;;;;;;1.67;0.70;;;;;;;;;;5046278;28;20673;-69
2023/03/27 05:03:50;;;;;;;0.50;0.50;;;;;;;;;;5045415;28;20271;-69
2023/03/27 05:06:40;;;;;;;0.87;0.73;;;;;;;;;;5044201;28;20541;-69
2023/03/27 05:09:12;;;;;;;0.60;0.60;;;;;;;;;;5031239;28;20607;-70
2023/03/27 05:11:38;;;;;;;2.83;0.80;;;;;;;;;;5048229;28;20200;-70
2023/03/27 05:14:05;;;;;;;0.83;0.70;;;;;;;;;;5029689;28;20200;-69
2023/03/27 05:16:34;;;;;;;1.47;0.80;;;;;;;;;;5044279;28;20207;-69
2023/03/27 05:19:02;;;;;;;0.70;0.70;;;;;;;;;;5032070;28;20202;-69
2023/03/27 05:21:32;;;;;;;0.80;0.80;;;;;;;;;;5030464;28;20641;-69
2023/03/27 05:23:59;;;;;;;0.70;0.70;;;;;;;;;;5042480;28;20196;-69
2023/03/27 05:26:27;;;;;;;2.43;0.80;;;;;;;;;;5040454;28;20285;-69
2023/03/27 05:28:57;;;;;;;2.30;0.77;;;;;;;;;;5032015;28;20197;-69
2023/03/27 05:31:24;;;;;;;2.47;0.80;;;;;;;;;;5044304;28;20660;-69
2023/03/27 05:34:01;;;;;;;0.57;0.57;;;;;;;;;;5032035;28;20193;-68
2023/03/27 05:36:30;;;;;;;1.50;0.70;;;;;;;;;;5043287;28;20199;-68
2023/03/27 05:38:57;;;;;;;0.60;0.60;;;;;;;;;;5029687;28;20209;-68
2023/03/27 05:41:35;;;;;;;0.60;0.60;;;;;;;;;;5026955;28;20618;-69
2023/03/27 05:44:03;;;;;;;1.83;0.73;;;;;;;;;;5042185;28;20203;-69
2023/03/27 05:46:34;;;;;;;1.13;0.70;;;;;;;;;;5032736;28;20261;-69
2023/03/27 05:49:07;;;;;;;0.50;0.50;;;;;;;;;;5045915;28;20656;-69
2023/03/27 05:51:34;;;;;;;1.73;0.80;;;;;;;;;;5044458;28;20191;-68
2023/03/27 05:54:01;;;;;;;1.23;0.80;;;;;;;;;;5032887;28;20655;-68
2023/03/27 05:56:45;;;;;;;0.90;0.73;;;;;;;;;;5030690;28;20218;-68
2023/03/27 05:59:12;;;;;;;2.00;0.73;;;;;;;;;;5030300;28;20248;-68
2023/03/27 06:01:44;;;;;;;1.10;0.80;;;;;;;;;;5030638;28;20660;-69
2023/03/27 06:04:12;;;;;;;0.77;0.60;;;;;;;;;;5026050;28;20204;-68
2023/03/27 06:06:56;;;;;;;2.40;0.70;;;;;;;;;;5045568;28;20195;-69
2023/03/27 06:09:22;;;;;;;0.67;0.67;;;;;;;;;;5029866;28;20613;-68
2023/03/27 06:12:10;;;;;;;1.10;0.60;;;;;;;;;;5045703;28;20581;-69
2023/03/27 06:14:38;;;;;;;2.30;0.70;;;;;;;;;;5031884;28;20206;-68
2023/03/27 06:17:21;;;;;;;1.20;0.97;;;;;;;;;;5031945;28;20210;-69
2023/03/27 06:19:58;;;;;;;0.63;0.63;;;;;;;;;;5047661;28;20222;-69
2023/03/27 06:22:25;;;;;;;1.47;0.80;;;;;;;;;;5049052;28;20303;-68
2023/03/27 06:24:52;;;;;;;2.47;0.80;;;;;;;;;;5031032;28;20207;-71
2023/03/27 06:27:20;;;;;;;0.57;0.57;;;;;;;;;;5034822;28;20268;-68
2023/03/27 06:29:47;;;;;;;0.60;0.60;;;;;;;;;;5030666;28;20192;-67
2023/03/27 06:32:15;;;;;;;0.60;0.40;;;;;;;;;;5029992;28;20345;-70
2023/03/27 06:34:48;;;;;;;1.23;0.50;;;;;;;;;;5030665;28;20223;-68
2023/03/27 06:37:39;;;;;;;0.70;0.70;;;;;;;;;;5031441;28;20690;-69
2023/03/27 06:40:08;;;;;;;1.13;0.70;;;;;;;;;;5029487;28;20209;-69
2023/03/27 06:42:37;;;;;;;0.50;0.50;;;;;;;;;;5045302;28;20715;-69
2023/03/27 06:45:23;;;;;;;0.97;0.70;;;;;;;;;;5047645;28;20582;-69
2023/03/27 06:48:08;;;;;;;1.67;0.63;;;;;;;;;;5049571;28;20757;-68
2023/03/27 06:50:40;;;;;;;0.70;0.70;;;;;;;;;;5022373;28;20196;-68
2023/03/27 06:53:06;;;;;;;5.03;0.80;;;;;;;;;;5046274;28;20219;-68
2023/03/27 06:55:42;;;;;;;0.57;0.57;;;;;;;;;;5042402;28;20664;-69
2023/03/27 06:58:12;;;;;;;0.93;0.60;;;;;;;;;;5045841;28;20212;-68
2023/03/27 07:00:40;;;;;;;0.73;0.73;;;;;;;;;;5029291;28;20195;-70
2023/03/27 07:03:19;;;;;;;2.70;1.07;;;;;;;;;;5080226;23;20257;-73
2023/03/27 07:06:01;;;;;;;1.20;0.70;;;;;;;;;;5024958;28;20188;-74
2023/03/27 07:08:33;;;;;;;0.60;0.60;;;;;;;;;;5025174;28;20224;-73
2023/03/27 07:11:03;;;;;;;2.93;0.70;;;;;;;;;;5007013;28;20749;-73
2023/03/27 07:13:32;;;;;;;1.43;0.93;;;;;;;;;;5008758;28;20287;-73
2023/03/27 07:16:01;;;;;;;0.83;0.80;;;;;;;;;;5005061;28;20337;-73
2023/03/27 07:18:31;;;;;;;1.70;1.30;;;;;;;;;;5102829;23;20231;-73
2023/03/27 07:20:58;;;;;;;1.67;0.93;;;;;;;;;;5040895;28;20257;-73
2023/03/27 07:23:25;;;;;;;0.53;0.50;;;;;;;;;;5053610;28;20633;-73
2023/03/27 07:25:57;;;;;;;0.67;0.67;;;;;;;;;;5061492;28;20191;-73
2023/03/27 07:28:43;;;;;;;3.80;1.50;;;;;;;;;;5077657;28;20229;-73
2023/03/27 07:31:15;;;;;;;0.87;0.80;;;;;;;;;;5056598;28;20196;-73
2023/03/27 07:33:45;;;;;;;5.53;1.30;;;;;;;;;;5059168;28;20586;-73
2023/03/27 07:36:13;;;;;;;1.30;0.97;;;;;;;;;;5060963;28;20609;-73
2023/03/27 07:38:45;;;;;;;1.53;1.13;;;;;;;;;;5061411;28;20214;-73
2023/03/27 07:41:39;;;;;;;4.13;1.30;;;;;;;;;;5059327;28;20203;-74
2023/03/27 07:44:28;;;;;;;3.07;0.93;;;;;;;;;;5056259;28;20210;-73
2023/03/27 07:47:00;;;;;;;3.00;0.90;;;;;;;;;;5077212;28;20201;-73
2023/03/27 07:49:26;;;;;;;1.97;1.37;;;;;;;;;;5059940;28;20205;-73
2023/03/27 07:51:53;;;;;;;0.80;0.80;;;;;;;;;;5056368;28;20717;-73
2023/03/27 07:54:21;;;;;;;1.90;1.00;;;;;;;;;;5074261;28;20229;-73
2023/03/27 07:56:51;;;;;;;3.33;1.40;;;;;;;;;;5093725;28;20209;-73
2023/03/27 07:59:34;;;;;;;1.50;1.00;;;;;;;;;;5077746;28;20262;-73
2023/03/27 08:02:09;;;;;;;1.10;0.90;;;;;;;;;;5075178;28;20273;-73
2023/03/27 08:04:38;;;;;;;1.43;0.83;;;;;;;;;;5060241;28;20229;-73
2023/03/27 08:07:06;;;;;;;5.70;1.50;;;;;;;;;;5060869;28;20213;-73
2023/03/27 08:09:35;;;;;;;1.77;1.20;;;;;;;;;;5052938;28;20199;-74
2023/03/27 08:12:02;;;;;;;1.23;1.03;;;;;;;;;;5061371;28;20206;-74
2023/03/27 08:14:30;;;;;;;1.07;0.80;;;;;;;;;;5057206;28;20203;-73
2023/03/27 08:17:05;;;;;;;1.23;0.87;;;;;;;;;;5077710;28;20214;-74
2023/03/27 08:19:45;;;;;;;1.30;1.00;;;;;;;;;;5061315;28;20206;-74
2023/03/27 08:22:17;;;;;;;2.00;1.00;;;;;;;;;;5061562;28;20282;-74
2023/03/27 08:25:09;;;;;;;1.10;1.00;;;;;;;;;;5080020;28;20558;-73
2023/03/27 08:27:42;;;;;;;1.80;0.90;;;;;;;;;;5081771;28;20193;-73
2023/03/27 08:30:10;;;;;;;1.20;1.00;;;;;;;;;;5080829;28;20209;-74
2023/03/27 08:32:48;;;;;;;2.13;0.80;;;;;;;;;;5078761;28;20277;-74
2023/03/27 08:35:16;;;;;;;1.23;0.93;;;;;;;;;;5058359;28;20202;-74
2023/03/27 08:37:45;;;;;;;1.97;0.80;;;;;;;;;;5072683;28;20227;-74
2023/03/27 08:40:30;;;;;;;3.47;1.13;;;;;;;;;;5078585;28;20203;-73
2023/03/27 08:43:25;;;;;;;4.17;1.30;;;;;;;;;;5080741;28;20296;-73
2023/03/27 08:45:53;;;;;;;1.30;1.00;;;;;;;;;;5059118;28;20202;-74
2023/03/27 08:48:26;;;;;;;3.23;0.97;;;;;;;;;;5058908;28;20660;-73
2023/03/27 08:50:56;;;;;;;1.53;0.93;;;;;;;;;;5065360;28;20297;-73
2023/03/27 08:53:31;;;;;;;0.90;0.80;;;;;;;;;;5065087;28;20234;-74
2023/03/27 08:55:59;;;;;;;1.43;0.80;;;;;;;;;;5062149;28;20199;-74
2023/03/27 08:58:37;;;;;;;1.47;1.00;;;;;;;;;;5079063;28;20612;-74
2023/03/27 09:01:28;;;;;;;1.03;0.80;;;;;;;;;;5062546;28;20199;-72
2023/03/27 09:04:02;;;;;;;0.77;0.77;;;;;;;;;;5071380;28;20215;-73
2023/03/27 09:06:37;;;;;;;4.93;1.00;;;;;;;;;;5061474;28;20281;-74
2023/03/27 09:09:07;;;;;;;1.10;0.87;;;;;;;;;;5057534;28;20253;-74
2023/03/27 09:11:43;;;;;;;0.60;0.60;;;;;;;;;;5066455;28;20210;-73
2023/03/27 09:14:13;;;;;;;0.97;0.77;;;;;;;;;;5065803;28;20218;-73
2023/03/27 09:16:47;;;;;;;0.67;0.60;;;;;;;;;;5061438;28;20226;-73
2023/03/27 09:19:29;;;;;;;1.83;1.03;;;;;;;;;;5082119;28;20700;-74
2023/03/27 09:22:00;;;;;;;1.63;0.87;;;;;;;;;;5065187;28;20214;-73
2023/03/27 09:24:47;;;;;;;0.77;0.77;;;;;;;;;;5083581;28;20204;-74
2023/03/27 09:27:31;;;;;;;1.17;0.80;;;;;;;;;;5065099;28;20240;-74
2023/03/27 09:30:18;;;;;;;2.03;0.67;;;;;;;;;;5063396;28;20201;-73
2023/03/27 09:32:54;;;;;;;1.23;0.90;;;;;;;;;;5072758;28;20793;-72
2023/03/27 09:35:22;;;;;;;1.37;1.00;;;;;;;;;;5063631;28;20203;-74
2023/03/27 09:37:55;;;;;;;0.70;0.70;;;;;;;;;;5078671;28;20207;-72
2023/03/27 09:40:29;;;;;;;0.60;0.60;;;;;;;;;;5092708;28;20196;-74
2023/03/27 09:43:02;;;;;;;0.73;0.70;;;;;;;;;;5063374;28;20248;-73
2023/03/27 09:45:33;;;;;;;2.27;0.77;;;;;;;;;;5063637;28;20225;-72
2023/03/27 09:48:04;;;;;;;0.70;0.70;;;;;;;;;;5065024;28;20190;-73
2023/03/27 09:50:45;;;;;;;1.10;0.60;;;;;;;;;;5057742;28;20679;-73
2023/03/27 09:53:56;;;;;;;0.93;0.70;;;;;;;;;;5063814;28;20215;-73
2023/03/27 09:56:22;;;;;;;0.50;0.50;;;;;;;;;;5057303;28;20213;-73
2023/03/27 09:58:53;;;;;;;1.07;0.97;;;;;;;;;;5052500;28;20202;-73
2023/03/27 10:01:26;;;;;;;1.27;0.90;;;;;;;;;;5065335;28;20241;-74
2023/03/27 10:03:59;;;;;;;1.03;0.70;;;;;;;;;;5066168;28;20222;-74
2023/03/27 10:06:37;;;;;;;1.93;0.80;;;;;;;;;;5080961;28;20251;-74
2023/03/27 10:09:19;;;;;;;0.83;0.70;;;;;;;;;;5064982;28;20200;-73
2023/03/27 10:11:48;;;;;;;1.50;0.80;;;;;;;;;;5058429;28;20289;-73
2023/03/27 10:14:22;;;;;;;1.43;0.87;;;;;;;;;;5059005;28;20186;-73
2023/03/27 10:16:49;;;;;;;0.87;0.80;;;;;;;;;;5077067;28;20258;-73
2023/03/27 10:19:20;;;;;;;2.40;0.80;;;;;;;;;;5073888;28;20558;-74
2023/03/27 10:21:50;;;;;;;1.00;0.73;;;;;;;;;;5062625;28;20273;-73
2023/03/27 10:24:27;;;;;;;1.27;0.73;;;;;;;;;;5060112;28;20213;-73
2023/03/27 10:27:18;;;;;;;0.77;0.63;;;;;;;;;;5063064;28;20236;-72
2023/03/27 10:30:24;;;;;;;0.93;0.87;;;;;;;;;;5085900;28;20207;-73
2023/03/27 10:32:52;;;;;;;0.60;0.60;;;;;;;;;;5055788;28;20242;-73
2023/03/27 10:35:34;;;;;;;0.60;0.60;;;;;;;;;;5062634;28;20198;-74
2023/03/27 10:38:13;;;;;;;1.63;0.80;;;;;;;;;;5063522;28;20215;-74
2023/03/27 10:41:08;;;;;;;1.07;0.80;;;;;;;;;;5068928;28;20203;-74
2023/03/27 10:43:43;;;;;;;1.57;0.90;;;;;;;;;;5070370;28;20227;-73
2023/03/27 10:46:12;;;;;;;2.67;1.60;;;;;;;;;;5062981;28;20258;-74
2023/03/27 10:48:41;;;;;;;1.30;0.90;;;;;;;;;;5062428;28;20183;-73
2023/03/27 10:51:22;;;;;;;2.90;1.77;;;;;;;;;;5074339;28;20201;-73
2023/03/27 10:53:58;;;;;;;2.07;1.20;;;;;;;;;;5059989;28;20328;-74
2023/03/27 10:56:41;;;;;;;0.80;0.70;;;;;;;;;;5060481;28;20217;-74
2023/03/27 10:59:13;;;;;;;0.70;0.70;;;;;;;;;;5056672;28;20210;-74
2023/03/27 11:01:42;;;;;;;2.40;0.73;;;;;;;;;;5063465;28;20206;-73
2023/03/27 11:04:13;;;;;;;1.23;0.90;;;;;;;;;;5056030;28;20290;-73
2023/03/27 11:06:48;;;;;;;2.23;1.13;;;;;;;;;;5078794;28;20207;-74
2023/03/27 11:09:22;;;;;;;1.93;1.20;;;;;;;;;;5071302;28;20297;-73
2023/03/27 11:11:59;;;;;;;1.83;1.60;;;;;;;;;;5079046;28;20194;-74
2023/03/27 11:14:27;;;;;;;1.10;0.90;;;;;;;;;;5056002;28;20234;-74
2023/03/27 11:16:55;;;;;;;0.90;0.70;;;;;;;;;;5091299;28;20215;-75
2023/03/27 11:19:59;;;;;;;1.97;1.17;;;;;;;;;;5078621;28;20659;-74
2023/03/27 11:22:28;;;;;;;1.37;0.90;;;;;;;;;;5076627;28;20272;-74
2023/03/27 11:24:58;;;;;;;1.03;0.93;;;;;;;;;;5077580;28;20191;-74
2023/03/27 11:27:29;;;;;;;2.60;1.00;;;;;;;;;;5056202;28;20183;-73
2023/03/27 11:30:03;;;;;;;2.80;1.10;;;;;;;;;;5068310;28;20281;-73
2023/03/27 11:32:39;;;;;;;1.00;0.80;;;;;;;;;;5056475;28;20311;-74
2023/03/27 11:35:07;;;;;;;0.93;0.80;;;;;;;;;;5062531;28;20251;-71
2023/03/27 11:37:45;;;;;;;1.53;0.70;;;;;;;;;;5063374;28;20221;-74
2023/03/27 11:40:18;;;;;;;0.70;0.60;;;;;;;;;;5074429;28;20734;-74
2023/03/27 11:42:47;;;;;;;1.30;0.50;;;;;;;;;;5058115;28;20269;-73
2023/03/27 11:45:17;;;;;;;2.00;1.00;;;;;;;;;;5063127;28;20199;-74
2023/03/27 11:47:49;;;;;;;1.13;1.03;;;;;;;;;;5055425;28;20223;-72
2023/03/27 11:50:20;;;;;;;1.33;1.10;;;;;;;;;;5091292;28;20202;-74
2023/03/27 11:52:51;;;;;;;1.47;1.00;;;;;;;;;;5061739;28;20276;-73
2023/03/27 11:55:33;;;;;;;1.27;0.63;;;;;;;;;;5061531;28;20186;-73
2023/03/27 11:58:06;;;;;;;0.70;0.70;;;;;;;;;;5059942;28;20275;-73
2023/03/27 12:00:47;;;;;;;1.37;0.90;;;;;;;;;;5058959;28;20213;-74
2023/03/27 12:03:35;;;;;;;1.87;1.50;;;;;;;;;;5066877;28;20211;-74
2023/03/27 12:06:08;;;;;;;0.67;0.60;;;;;;;;;;5051489;28;20210;-74
2023/03/27 12:08:44;;;;;;;1.47;0.70;;;;;;;;;;5052724;28;20199;-74
2023/03/27 12:11:12;;;;;;;11.10;1.10;;;;;;;;;;5069353;28;20214;-73
2023/03/27 12:13:53;;;;;;;0.80;0.67;;;;;;;;;;5060427;28;20210;-73
2023/03/27 12:16:41;;;;;;;0.90;0.80;;;;;;;;;;5058535;28;20199;-74
2023/03/27 12:19:19;;;;;;;2.90;0.60;;;;;;;;;;5048957;28;20242;-74
2023/03/27 12:22:03;;;;;;;0.90;0.90;;;;;;;;;;5049745;28;20199;-73
2023/03/27 12:24:42;;;;;;;0.50;0.50;;;;;;;;;;5078258;28;20617;-74
2023/03/27 12:27:50;;;;;;;0.93;0.63;;;;;;;;;;5074164;28;20198;-74
2023/03/27 12:30:40;;;;;;;0.53;0.53;;;;;;;;;;5061141;28;20237;-73
2023/03/27 12:33:18;;;;;;;1.07;0.70;;;;;;;;;;5060212;28;20219;-73
2023/03/27 12:35:48;;;;;;;0.60;0.60;;;;;;;;;;5059247;28;20198;-73
2023/03/27 12:38:21;;;;;;;0.70;0.70;;;;;;;;;;5058297;28;20261;-72
2023/03/27 12:40:49;;;;;;;2.00;0.50;;;;;;;;;;5079532;28;20222;-73
2023/03/27 12:43:26;;;;;;;0.50;0.50;;;;;;;;;;5076780;28;20644;-74
2023/03/27 12:46:07;;;;;;;1.63;0.97;;;;;;;;;;5055766;28;20194;-74
2023/03/27 12:48:45;;;;;;;1.43;1.10;;;;;;;;;;5057562;28;20194;-74
2023/03/27 12:51:13;;;;;;;1.00;0.60;;;;;;;;;;5061108;28;20187;-73
2023/03/27 12:53:51;;;;;;;1.73;1.13;;;;;;;;;;5075387;28;20302;-74
2023/03/27 12:56:25;;;;;;;1.10;1.00;;;;;;;;;;5060678;28;20734;-73
2023/03/27 12:58:54;;;;;;;4.00;1.90;;;;;;;;;;5068442;28;20246;-74
2023/03/27 13:01:26;;;;;;;0.70;0.70;;;;;;;;;;5073453;28;20214;-73
2023/03/27 13:04:05;;;;;;;1.23;0.70;;;;;;;;;;5053284;28;20887;-72
2023/03/27 13:06:38;;;;;;;1.57;0.60;;;;;;;;;;5066968;28;20277;-71
2023/03/27 13:09:15;;;;;;;3.00;1.03;;;;;;;;;;5074309;28;20582;-74
2023/03/27 13:12:00;;;;;;;1.80;0.60;;;;;;;;;;5077229;28;20690;-74
2023/03/27 13:14:42;;;;;;;1.10;0.70;;;;;;;;;;5071563;28;20206;-73
2023/03/27 13:17:27;;;;;;;1.47;1.07;;;;;;;;;;5074903;28;20233;-74
2023/03/27 13:19:58;;;;;;;2.70;1.57;;;;;;;;;;5062090;28;20212;-74
2023/03/27 13:22:31;;;;;;;8.00;1.23;;;;;;;;;;5061600;28;20218;-72
2023/03/27 13:25:11;;;;;;;1.60;0.80;;;;;;;;;;5076666;28;20205;-73
2023/03/27 13:27:46;;;;;;;0.70;0.70;;;;;;;;;;5063581;28;20228;-74
2023/03/27 13:30:27;;;;;;;1.50;1.00;;;;;;;;;;5073959;28;20191;-73
2023/03/27 13:33:15;;;;;;;1.10;0.60;;;;;;;;;;5066366;28;20216;-73
2023/03/27 13:35:51;;;;;;;1.27;0.70;;;;;;;;;;5056897;28;20274;-73
2023/03/27 13:38:17;;;;;;;1.70;0.70;;;;;;;;;;5064223;28;20228;-73
2023/03/27 13:41:28;;;;;;;1.30;0.73;;;;;;;;;;5062263;28;20252;-73
2023/03/27 13:43:55;;;;;;;2.87;0.80;;;;;;;;;;5057218;28;20654;-72
2023/03/27 13:46:33;;;;;;;0.80;0.80;;;;;;;;;;5060639;28;20212;-74
2023/03/27 13:49:36;;;;;;;1.00;0.90;;;;;;;;;;5063864;28;20579;-74
2023/03/27 13:52:23;;;;;;;0.77;0.70;;;;;;;;;;5063735;28;20643;-74
2023/03/27 13:55:10;;;;;;;1.83;0.77;;;;;;;;;;5081201;28;20190;-72
2023/03/27 13:58:12;;;;;;;0.77;0.70;;;;;;;;;;5065961;28;20313;-74
2023/03/27 14:00:55;;;;;;;0.50;0.50;;;;;;;;;;5080077;28;20574;-74
2023/03/27 14:03:35;;;;;;;1.30;0.70;;;;;;;;;;5078013;28;20210;-74
2023/03/27 14:06:13;;;;;;;0.80;0.80;;;;;;;;;;5059397;28;20353;-74
2023/03/27 14:08:47;;;;;;;1.60;0.70;;;;;;;;;;5062827;28;20294;-74
2023/03/27 14:12:00;;;;;;;0.93;0.70;;;;;;;;;;5054594;28;20551;-74
2023/03/27 14:15:01;;;;;;;2.63;0.83;;;;;;;;;;5077360;28;20213;-74
2023/03/27 14:17:43;;;;;;;3.03;1.00;;;;;;;;;;5092492;28;20195;-74
2023/03/27 14:20:15;;;;;;;1.40;0.70;;;;;;;;;;5051860;28;20298;-73
2023/03/27 14:22:48;;;;;;;0.83;0.83;;;;;;;;;;5068135;28;20231;-74
2023/03/27 14:25:20;;;;;;;1.17;0.50;;;;;;;;;;5072647;28;20194;-74
2023/03/27 14:27:59;;;;;;;0.93;0.50;;;;;;;;;;5051621;28;20237;-74
2023/03/27 14:30:27;;;;;;;3.73;0.77;;;;;;;;;;5076277;28;20187;-74
2023/03/27 14:33:18;;;;;;;0.93;0.70;;;;;;;;;;5075397;28;20222;-74
2023/03/27 14:35:53;;;;;;;1.83;0.83;;;;;;;;;;5056133;28;20574;-74
2023/03/27 14:38:23;;;;;;;2.73;0.87;;;;;;;;;;5062575;28;20565;-73
2023/03/27 14:40:51;;;;;;;0.50;0.50;;;;;;;;;;5054084;28;20744;-74
2023/03/27 14:43:32;;;;;;;0.70;0.70;;;;;;;;;;5062104;28;20214;-74
2023/03/27 14:46:01;;;;;;;3.50;0.90;;;;;;;;;;5073257;28;20205;-73
2023/03/27 14:48:30;;;;;;;2.10;1.07;;;;;;;;;;5063192;28;20290;-73
2023/03/27 14:51:00;;;;;;;0.80;0.80;;;;;;;;;;5078854;28;20207;-74
2023/03/27 14:53:43;;;;;;;1.57;1.00;;;;;;;;;;5077909;28;20277;-73
2023/03/27 14:56:19;;;;;;;5.50;1.30;;;;;;;;;;5076905;28;20195;-74
2023/03/27 14:58:58;;;;;;;2.57;1.10;;;;;;;;;;5076964;28;20217;-72
2023/03/27 15:01:30;;;;;;;0.97;0.47;;;;;;;;;;5071554;28;20661;-74
2023/03/27 15:03:57;;;;;;;1.20;1.07;;;;;;;;;;5061574;28;20237;-73
2023/03/27 15:06:25;;;;;;;1.47;1.00;;;;;;;;;;5079174;28;20659;-74
2023/03/27 15:08:58;;;;;;;2.50;1.43;;;;;;;;;;5057423;28;20220;-74
2023/03/27 15:11:46;;;;;;;5.47;2.60;;;;;;;;;;5075559;28;20202;-73
2023/03/27 15:14:19;;;;;;;9.87;3.47;;;;;;;;;;5076986;28;20291;-74
2023/03/27 15:16:49;;;;;;;11.67;3.40;;;;;;;;;;5062421;28;20207;-74
2023/03/27 15:19:19;;;;;;;8.90;3.40;;;;;;;;;;5079515;28;20238;-74
2023/03/27 15:21:48;;;;;;;9.90;3.87;;;;;;;;;;5062207;28;20199;-73
2023/03/27 15:24:18;;;;;;;1.30;0.80;;;;;;;;;;5060154;28;20742;-74